Time,TemperatureF,DewpointF,PressureIn,WindDirection,WindDirectionDegrees,WindSpeedMPH,WindSpeedGustMPH,Humidity,HourlyPrecipIn,Conditions,Clouds,dailyrainin,SoftwareType,DateUTC
2013-02-10 00:00:00,53.8,53.2,30.24,NNE,14,0.0,0.0,98,0.00,,SKC,0.00,VWS V14.01,2013-02-10 05:00:00,
2013-02-10 00:06:00,53.8,53.2,30.24,NNE,14,0.0,0.0,98,0.00,,SKC,0.00,VWS V14.01,2013-02-10 05:06:00,
2013-02-10 00:12:00,53.7,53.2,30.24,NNE,14,0.0,0.0,98,0.00,,SKC,0.00,VWS V14.01,2013-02-10 05:12:00,
2013-02-10 00:17:00,53.8,53.2,30.25,NNE,14,0.0,0.0,98,0.00,,SKC,0.00,VWS V14.01,2013-02-10 05:17:00,
2013-02-10 00:22:00,53.5,52.7,30.25,NNE,14,0.0,0.0,97,0.00,,SKC,0.00,VWS V14.01,2013-02-10 05:22:00,
2013-02-10 00:28:00,53.2,52.7,30.24,NNE,14,0.0,0.0,98,0.00,,SKC,0.00,VWS V14.01,2013-02-10 05:28:00,
2013-02-10 00:33:00,53.0,52.5,30.24,NNE,14,0.0,0.0,98,0.00,,SKC,0.00,VWS V14.01,2013-02-10 05:33:00,
2013-02-10 00:39:00,52.8,52.2,30.24,NNE,14,0.0,0.0,98,0.00,,SKC,0.00,VWS V14.01,2013-02-10 05:39:00,
2013-02-10 00:44:00,53.1,52.5,30.24,NNE,14,0.0,0.0,98,0.00,,SKC,0.00,VWS V14.01,2013-02-10 05:44:00,
2013-02-10 00:49:00,53.2,52.7,30.24,NNE,14,0.0,0.0,98,0.00,,SKC,0.00,VWS V14.01,2013-02-10 05:49:00,
2013-02-10 00:55:00,53.0,52.5,30.24,NNE,14,0.0,0.0,98,0.00,,SKC,0.00,VWS V14.01,2013-02-10 05:55:00,
2013-02-10 01:00:00,53.1,52.5,30.24,NNE,14,0.0,0.0,98,0.00,,SKC,0.00,VWS V14.01,2013-02-10 06:00:00,
2013-02-10 01:05:00,53.1,52.5,30.24,NNE,14,0.0,0.0,98,0.00,,SKC,0.00,VWS V14.01,2013-02-10 06:05:00,
2013-02-10 01:11:00,53.3,52.8,30.24,NNE,14,0.0,0.0,98,0.00,,SKC,0.00,VWS V14.01,2013-02-10 06:11:00,
2013-02-10 01:17:00,53.1,52.5,30.24,NNE,14,0.0,0.0,98,0.00,,SKC,0.00,VWS V14.01,2013-02-10 06:17:00,
2013-02-10 01:22:00,53.0,52.5,30.24,NNE,14,0.0,0.0,98,0.00,,SKC,0.00,VWS V14.01,2013-02-10 06:22:00,
2013-02-10 01:28:00,52.9,52.3,30.24,NNE,14,0.0,0.0,98,0.00,,SKC,0.00,VWS V14.01,2013-02-10 06:28:00,
2013-02-10 01:33:00,52.8,52.2,30.24,NNE,14,0.0,0.0,98,0.00,,SKC,0.00,VWS V14.01,2013-02-10 06:33:00,
2013-02-10 01:38:00,52.6,52.0,30.24,NNE,14,0.0,0.0,98,0.00,,SKC,0.00,VWS V14.01,2013-02-10 06:38:00,
2013-02-10 01:44:00,52.7,52.2,30.24,NNE,14,0.0,0.0,98,0.00,,SKC,0.00,VWS V14.01,2013-02-10 06:44:00,
2013-02-10 01:49:00,52.8,52.2,30.24,NNE,14,0.0,0.0,98,0.00,,SKC,0.00,VWS V14.01,2013-02-10 06:49:00,
2013-02-10 01:55:00,52.7,52.2,30.24,NNE,14,0.0,0.0,98,0.00,,SKC,0.00,VWS V14.01,2013-02-10 06:55:00,
2013-02-10 02:00:00,52.7,52.2,30.24,NNE,14,0.0,0.0,98,0.00,,SKC,0.00,VWS V14.01,2013-02-10 07:00:00,
2013-02-10 02:06:00,52.6,52.0,30.24,NNE,14,0.0,0.0,98,0.00,,SKC,0.00,VWS V14.01,2013-02-10 07:06:00,
2013-02-10 02:11:00,52.3,51.8,30.24,NNE,14,0.0,0.0,98,0.00,,SKC,0.00,VWS V14.01,2013-02-10 07:11:00,
2013-02-10 02:16:00,52.3,51.8,30.24,NNE,14,0.0,0.0,98,0.00,,SKC,0.00,VWS V14.01,2013-02-10 07:16:00,
2013-02-10 02:22:00,52.2,51.7,30.24,NNE,14,0.0,0.0,98,0.00,,SKC,0.00,VWS V14.01,2013-02-10 07:22:00,
2013-02-10 02:27:00,51.4,50.9,30.23,NNE,14,0.0,0.0,98,0.00,,SKC,0.00,VWS V14.01,2013-02-10 07:27:00,
2013-02-10 02:33:00,51.6,51.1,30.23,NNE,14,0.0,0.0,98,0.00,,SKC,0.00,VWS V14.01,2013-02-10 07:33:00,
2013-02-10 02:38:00,51.8,51.3,30.24,NNE,14,0.0,0.0,98,0.00,,SKC,0.00,VWS V14.01,2013-02-10 07:38:00,
2013-02-10 02:44:00,51.8,51.3,30.24,NNE,14,0.0,0.0,98,0.00,,SKC,0.00,VWS V14.01,2013-02-10 07:44:00,
2013-02-10 02:49:00,51.7,51.2,30.24,NNE,14,0.0,0.0,98,0.00,,SKC,0.00,VWS V14.01,2013-02-10 07:49:00,
2013-02-10 02:55:00,51.8,51.3,30.24,NNE,14,0.0,0.0,98,0.00,,SKC,0.00,VWS V14.01,2013-02-10 07:55:00,
2013-02-10 03:00:00,51.8,51.3,30.23,NNE,14,0.0,0.0,98,0.00,,SKC,0.00,VWS V14.01,2013-02-10 08:00:00,
2013-02-10 03:06:00,51.3,50.8,30.24,NNE,14,0.0,0.0,98,0.00,,SKC,0.00,VWS V14.01,2013-02-10 08:06:00,
2013-02-10 03:11:00,51.4,50.9,30.23,NNE,14,0.0,0.0,98,0.00,,SKC,0.00,VWS V14.01,2013-02-10 08:11:00,
2013-02-10 03:16:00,51.2,50.7,30.23,NNE,14,0.0,0.0,98,0.00,,SKC,0.00,VWS V14.01,2013-02-10 08:16:00,
2013-02-10 03:22:00,51.2,50.7,30.24,NNE,14,0.0,0.0,98,0.00,,SKC,0.00,VWS V14.01,2013-02-10 08:22:00,
2013-02-10 03:27:00,51.3,50.8,30.24,NNE,14,0.0,0.0,98,0.00,,SKC,0.00,VWS V14.01,2013-02-10 08:27:00,
2013-02-10 03:32:00,51.3,50.8,30.24,NNE,14,0.0,0.0,98,0.00,,SKC,0.00,VWS V14.01,2013-02-10 08:32:00,
2013-02-10 03:38:00,51.0,50.5,30.23,NNE,14,0.0,0.0,98,0.00,,SKC,0.00,VWS V14.01,2013-02-10 08:38:00,
2013-02-10 03:43:00,51.1,50.8,30.23,NNE,14,0.0,0.0,99,0.00,,SKC,0.00,VWS V14.01,2013-02-10 08:43:00,
2013-02-10 03:49:00,51.0,50.7,30.23,NNE,14,0.0,0.0,99,0.00,,SKC,0.00,VWS V14.01,2013-02-10 08:49:00,
2013-02-10 03:54:00,51.0,50.7,30.23,NNE,14,0.0,0.0,99,0.00,,SKC,0.00,VWS V14.01,2013-02-10 08:54:00,
2013-02-10 04:00:00,51.4,51.1,30.23,NNE,14,0.0,0.0,99,0.00,,SKC,0.00,VWS V14.01,2013-02-10 09:00:00,
2013-02-10 04:05:00,51.3,51.0,30.23,NNE,14,0.0,0.0,99,0.00,,SKC,0.00,VWS V14.01,2013-02-10 09:05:00,
2013-02-10 04:11:00,51.3,51.0,30.23,NNE,14,0.0,0.0,99,0.00,,SKC,0.00,VWS V14.01,2013-02-10 09:11:00,
2013-02-10 04:16:00,51.2,50.9,30.23,NNE,14,0.0,0.0,99,0.00,,SKC,0.00,VWS V14.01,2013-02-10 09:16:00,
2013-02-10 04:21:00,51.0,50.5,30.23,NNE,14,0.0,0.0,98,0.00,,SKC,0.00,VWS V14.01,2013-02-10 09:21:00,
2013-02-10 04:27:00,50.8,50.3,30.23,NNE,14,0.0,0.0,98,0.00,,SKC,0.00,VWS V14.01,2013-02-10 09:27:00,
2013-02-10 04:32:00,50.8,50.5,30.22,NNE,14,0.0,0.0,99,0.00,,SKC,0.00,VWS V14.01,2013-02-10 09:32:00,
2013-02-10 04:37:00,50.7,50.4,30.23,NNE,14,0.0,0.0,99,0.00,,SKC,0.00,VWS V14.01,2013-02-10 09:37:00,
2013-02-10 04:43:00,50.8,50.5,30.23,NNE,14,0.0,0.0,99,0.00,,SKC,0.00,VWS V14.01,2013-02-10 09:43:00,
2013-02-10 04:49:00,50.9,50.6,30.23,NNE,14,0.0,0.0,99,0.00,,SKC,0.00,VWS V14.01,2013-02-10 09:49:00,
2013-02-10 04:54:00,51.1,50.8,30.23,NNE,14,0.0,0.0,99,0.00,,SKC,0.00,VWS V14.01,2013-02-10 09:54:00,
2013-02-10 04:59:00,50.9,50.6,30.23,NNE,14,0.0,0.0,99,0.00,,SKC,0.00,VWS V14.01,2013-02-10 09:59:00,
2013-02-10 05:05:00,51.0,50.7,30.23,NNE,14,0.0,0.0,99,0.00,,SKC,0.00,VWS V14.01,2013-02-10 10:05:00,
2013-02-10 05:10:00,51.0,50.7,30.23,NNE,14,0.0,0.0,99,0.00,,SKC,0.00,VWS V14.01,2013-02-10 10:10:00,
2013-02-10 05:16:00,50.9,50.6,30.23,NNE,14,0.0,0.0,99,0.00,,SKC,0.00,VWS V14.01,2013-02-10 10:16:00,
2013-02-10 05:21:00,51.0,50.7,30.23,NNE,14,0.0,0.0,99,0.01,,SKC,0.01,VWS V14.01,2013-02-10 10:21:00,
2013-02-10 05:26:00,51.1,50.8,30.23,NNE,14,0.0,0.0,99,0.01,,SKC,0.01,VWS V14.01,2013-02-10 10:26:00,
2013-02-10 05:32:00,51.1,50.8,30.23,NNE,14,0.0,0.0,99,0.01,,SKC,0.01,VWS V14.01,2013-02-10 10:32:00,
2013-02-10 05:37:00,51.1,50.8,30.23,NNE,14,0.0,0.0,99,0.01,,SKC,0.01,VWS V14.01,2013-02-10 10:37:00,
2013-02-10 05:42:00,51.2,50.9,30.23,NNE,14,0.0,0.0,99,0.01,,SKC,0.01,VWS V14.01,2013-02-10 10:42:00,
2013-02-10 05:47:00,51.2,50.9,30.23,NNE,14,0.0,0.0,99,0.01,,SKC,0.01,VWS V14.01,2013-02-10 10:47:00,
2013-02-10 05:53:00,50.9,50.6,30.23,NNE,14,0.0,0.0,99,0.01,,SKC,0.01,VWS V14.01,2013-02-10 10:53:00,
2013-02-10 05:59:00,51.1,50.8,30.23,NNE,14,0.0,0.0,99,0.01,,SKC,0.01,VWS V14.01,2013-02-10 10:59:00,
2013-02-10 06:04:00,51.1,50.8,30.23,NNE,14,0.0,0.0,99,0.01,,SKC,0.01,VWS V14.01,2013-02-10 11:04:00,
2013-02-10 06:10:00,50.7,50.4,30.23,NNE,14,0.0,0.0,99,0.01,,SKC,0.01,VWS V14.01,2013-02-10 11:10:00,
2013-02-10 06:15:00,50.9,50.6,30.24,NNE,14,0.0,0.0,99,0.01,,SKC,0.01,VWS V14.01,2013-02-10 11:15:00,
2013-02-10 06:20:00,51.2,50.9,30.24,NNE,14,0.0,1.0,99,0.01,,SKC,0.01,VWS V14.01,2013-02-10 11:20:00,
2013-02-10 06:26:00,51.2,50.9,30.24,NNE,14,0.0,1.0,99,0.01,,SKC,0.01,VWS V14.01,2013-02-10 11:26:00,
2013-02-10 06:31:00,51.3,51.0,30.25,NNE,14,0.0,0.0,99,0.00,,SKC,0.01,VWS V14.01,2013-02-10 11:31:00,
2013-02-10 06:36:00,51.9,51.6,30.25,NNE,14,0.0,0.0,99,0.00,,SKC,0.01,VWS V14.01,2013-02-10 11:36:00,
2013-02-10 06:42:00,52.1,51.8,30.25,NNE,14,0.0,0.0,99,0.00,,SKC,0.01,VWS V14.01,2013-02-10 11:42:00,
2013-02-10 06:49:00,52.4,52.1,30.25,NNE,14,0.0,0.0,99,0.00,,SKC,0.01,VWS V14.01,2013-02-10 11:49:00,
2013-02-10 06:54:00,52.8,52.5,30.25,NNE,14,0.0,0.0,99,0.00,,SKC,0.01,VWS V14.01,2013-02-10 11:54:00,
2013-02-10 06:59:00,52.7,52.4,30.26,NNE,14,0.0,0.0,99,0.00,,SKC,0.01,VWS V14.01,2013-02-10 11:59:00,
2013-02-10 07:05:00,52.6,52.3,30.26,NNE,14,0.0,0.0,99,0.00,,SKC,0.01,VWS V14.01,2013-02-10 12:05:00,
2013-02-10 07:12:00,52.8,52.5,30.26,NNE,14,0.0,0.0,99,0.00,,SKC,0.01,VWS V14.01,2013-02-10 12:12:00,
2013-02-10 07:17:00,52.5,52.2,30.26,NNE,14,0.0,0.0,99,0.00,,SKC,0.01,VWS V14.01,2013-02-10 12:17:00,
2013-02-10 07:22:00,52.6,52.3,30.26,NNE,14,0.0,0.0,99,0.00,,SKC,0.01,VWS V14.01,2013-02-10 12:22:00,
2013-02-10 07:28:00,52.8,52.5,30.26,NNE,14,0.0,0.0,99,0.00,,SKC,0.01,VWS V14.01,2013-02-10 12:28:00,
2013-02-10 07:33:00,52.8,52.5,30.26,NNE,14,0.0,1.0,99,0.00,,SKC,0.01,VWS V14.01,2013-02-10 12:33:00,
2013-02-10 07:39:00,52.5,52.2,30.26,NNE,14,0.0,1.0,99,0.00,,SKC,0.01,VWS V14.01,2013-02-10 12:39:00,
2013-02-10 07:45:00,52.7,52.4,30.26,NNE,14,0.0,1.0,99,0.00,,SKC,0.01,VWS V14.01,2013-02-10 12:45:00,
2013-02-10 07:50:00,53.4,53.1,30.26,NNE,19,0.0,1.0,99,0.00,,SKC,0.01,VWS V14.01,2013-02-10 12:50:00,
2013-02-10 07:55:00,53.9,53.6,30.27,NNE,24,0.0,1.0,99,0.00,,SKC,0.01,VWS V14.01,2013-02-10 12:55:00,
2013-02-10 08:01:00,54.1,53.8,30.27,NNE,24,0.0,0.0,99,0.00,,SKC,0.01,VWS V14.01,2013-02-10 13:01:00,
2013-02-10 08:06:00,55.2,54.9,30.27,NNE,24,0.0,0.0,99,0.00,,SKC,0.01,VWS V14.01,2013-02-10 13:06:00,
2013-02-10 08:11:00,56.0,55.7,30.28,ENE,66,0.0,0.0,99,0.00,,SKC,0.01,VWS V14.01,2013-02-10 13:11:00,
2013-02-10 08:17:00,57.2,56.9,30.28,ENE,66,0.0,0.0,99,0.00,,SKC,0.01,VWS V14.01,2013-02-10 13:17:00,
2013-02-10 08:22:00,58.1,58.1,30.29,ENE,69,0.0,0.0,100,0.00,,SKC,0.01,VWS V14.01,2013-02-10 13:22:00,
2013-02-10 08:28:00,59.5,59.5,30.29,ENE,69,0.0,0.0,100,0.00,,SKC,0.01,VWS V14.01,2013-02-10 13:28:00,
2013-02-10 08:33:00,60.7,60.4,30.29,ENE,59,0.0,1.0,99,0.00,,SKC,0.01,VWS V14.01,2013-02-10 13:33:00,
2013-02-10 08:38:00,62.4,61.8,30.29,ENE,59,0.0,1.0,98,0.00,,SKC,0.01,VWS V14.01,2013-02-10 13:38:00,
2013-02-10 08:44:00,63.5,61.4,30.29,ENE,57,0.0,3.0,93,0.00,,SKC,0.01,VWS V14.01,2013-02-10 13:44:00,
2013-02-10 08:50:00,64.3,61.9,30.29,ENE,78,1.0,3.0,92,0.00,,SKC,0.01,VWS V14.01,2013-02-10 13:50:00,
2013-02-10 08:55:00,65.6,61.6,30.29,SE,125,1.0,3.0,87,0.00,,SKC,0.01,VWS V14.01,2013-02-10 13:55:00,
2013-02-10 09:00:00,66.4,61.8,30.30,East,85,1.0,1.0,85,0.00,,SKC,0.01,VWS V14.01,2013-02-10 14:00:00,
2013-02-10 09:06:00,67.6,62.6,30.30,East,90,1.0,2.0,84,0.00,,SKC,0.01,VWS V14.01,2013-02-10 14:06:00,
2013-02-10 09:11:00,68.2,61.5,30.30,SE,128,1.0,5.0,79,0.00,,SKC,0.01,VWS V14.01,2013-02-10 14:11:00,
2013-02-10 09:16:00,69.2,61.7,30.30,North,9,3.0,5.0,77,0.00,,SKC,0.01,VWS V14.01,2013-02-10 14:16:00,
2013-02-10 09:22:00,69.3,61.4,30.31,ENE,71,1.0,5.0,76,0.00,,SKC,0.01,VWS V14.01,2013-02-10 14:22:00,
2013-02-10 09:28:00,70.1,61.0,30.31,ENE,77,1.0,5.0,73,0.00,,SKC,0.01,VWS V14.01,2013-02-10 14:28:00,
2013-02-10 09:33:00,70.4,61.3,30.31,ESE,109,0.0,3.0,73,0.00,,SKC,0.01,VWS V14.01,2013-02-10 14:33:00,
2013-02-10 09:38:00,71.2,61.7,30.30,North,349,3.0,8.0,72,0.00,,SKC,0.01,VWS V14.01,2013-02-10 14:38:00,
2013-02-10 09:44:00,71.6,61.7,30.30,NE,40,2.0,8.0,71,0.00,,SKC,0.01,VWS V14.01,2013-02-10 14:44:00,
2013-02-10 09:49:00,72.2,62.3,30.30,SSE,161,4.0,8.0,71,0.00,,SKC,0.01,VWS V14.01,2013-02-10 14:49:00,
2013-02-10 09:55:00,72.5,62.2,30.30,ESE,116,5.0,11.0,70,0.00,,SKC,0.01,VWS V14.01,2013-02-10 14:55:00,
2013-02-10 10:01:00,73.0,62.2,30.30,NE,36,4.0,8.0,69,0.00,,SKC,0.01,VWS V14.01,2013-02-10 15:01:00,
2013-02-10 10:06:00,73.4,63.0,30.30,East,88,3.0,8.0,70,0.00,,SKC,0.01,VWS V14.01,2013-02-10 15:06:00,
2013-02-10 10:11:00,73.9,61.8,30.31,East,86,2.0,8.0,66,0.00,,SKC,0.01,VWS V14.01,2013-02-10 15:11:00,
2013-02-10 10:17:00,74.3,62.2,30.31,ENE,69,4.0,8.0,66,0.00,,SKC,0.01,VWS V14.01,2013-02-10 15:17:00,
2013-02-10 10:22:00,74.6,62.5,30.31,East,101,1.0,8.0,66,0.00,,SKC,0.01,VWS V14.01,2013-02-10 15:22:00,
2013-02-10 10:28:00,75.0,61.1,30.31,South,178,6.0,8.0,62,0.00,,SKC,0.01,VWS V14.01,2013-02-10 15:28:00,
2013-02-10 10:33:00,75.3,61.4,30.31,East,84,0.0,6.0,62,0.00,,SKC,0.01,VWS V14.01,2013-02-10 15:33:00,
2013-02-10 10:38:00,75.8,60.9,30.31,ENE,61,2.0,7.0,60,0.00,,SKC,0.01,VWS V14.01,2013-02-10 15:38:00,
2013-02-10 10:44:00,75.5,60.7,30.31,NE,49,2.0,7.0,60,0.00,,SKC,0.01,VWS V14.01,2013-02-10 15:44:00,
2013-02-10 10:49:00,76.0,62.0,30.31,East,93,2.0,7.0,62,0.00,,SKC,0.01,VWS V14.01,2013-02-10 15:49:00,
2013-02-10 10:54:00,75.7,61.3,30.31,ESE,103,2.0,7.0,61,0.00,,SKC,0.01,VWS V14.01,2013-02-10 15:54:00,
2013-02-10 11:00:00,76.5,61.6,30.31,ESE,114,6.0,8.0,60,0.00,,SKC,0.01,VWS V14.01,2013-02-10 16:00:00,
2013-02-10 11:05:00,76.1,61.2,30.31,South,177,4.0,11.0,60,0.00,,SKC,0.01,VWS V14.01,2013-02-10 16:05:00,
2013-02-10 11:11:00,76.1,61.7,30.30,ENE,63,1.0,11.0,61,0.00,,SKC,0.01,VWS V14.01,2013-02-10 16:11:00,
2013-02-10 11:16:00,76.8,62.8,30.30,NE,35,1.0,11.0,62,0.00,,SKC,0.01,VWS V14.01,2013-02-10 16:16:00,
2013-02-10 11:21:00,75.8,62.3,30.30,NE,42,1.0,11.0,63,0.00,,SKC,0.01,VWS V14.01,2013-02-10 16:21:00,
2013-02-10 11:27:00,77.0,61.1,30.29,ENE,59,2.0,11.0,58,0.00,,SKC,0.01,VWS V14.01,2013-02-10 16:27:00,
2013-02-10 11:32:00,78.0,61.0,30.29,East,98,4.0,5.0,56,0.00,,SKC,0.01,VWS V14.01,2013-02-10 16:32:00,
2013-02-10 11:38:00,77.5,61.6,30.29,ESE,114,8.0,8.0,58,0.00,,SKC,0.01,VWS V14.01,2013-02-10 16:38:00,
2013-02-10 11:43:00,78.1,61.6,30.28,North,349,4.0,8.0,57,0.00,,SKC,0.01,VWS V14.01,2013-02-10 16:43:00,
2013-02-10 11:48:00,78.4,60.9,30.28,ESE,116,1.0,8.0,55,0.00,,SKC,0.01,VWS V14.01,2013-02-10 16:48:00,
2013-02-10 11:54:00,77.3,61.4,30.28,NNE,33,1.0,9.0,58,0.00,,SKC,0.01,VWS V14.01,2013-02-10 16:54:00,
2013-02-10 11:59:00,77.8,59.8,30.28,ENE,78,2.0,9.0,54,0.00,,SKC,0.01,VWS V14.01,2013-02-10 16:59:00,
2013-02-10 12:05:00,77.5,61.1,30.28,SSW,193,1.0,6.0,57,0.00,,SKC,0.01,VWS V14.01,2013-02-10 17:05:00,
2013-02-10 12:10:00,77.0,61.1,30.28,SSE,148,4.0,7.0,58,0.00,,SKC,0.01,VWS V14.01,2013-02-10 17:10:00,
2013-02-10 12:16:00,77.0,61.1,30.27,South,182,6.0,9.0,58,0.00,,SKC,0.01,VWS V14.01,2013-02-10 17:16:00,
2013-02-10 12:21:00,77.8,61.4,30.27,SE,127,1.0,9.0,57,0.00,,SKC,0.01,VWS V14.01,2013-02-10 17:21:00,
2013-02-10 12:26:00,78.2,65.0,30.27,ESE,110,0.0,9.0,64,0.00,,SKC,0.01,VWS V14.01,2013-02-10 17:26:00,
2013-02-10 12:32:00,79.3,61.2,30.26,SE,135,5.0,5.0,54,0.00,,SKC,0.01,VWS V14.01,2013-02-10 17:32:00,
2013-02-10 12:38:00,77.7,60.3,30.26,ESE,117,1.0,5.0,55,0.00,,SKC,0.01,VWS V14.01,2013-02-10 17:38:00,
2013-02-10 12:43:00,76.6,60.7,30.26,SE,144,5.0,8.0,58,0.00,,SKC,0.01,VWS V14.01,2013-02-10 17:43:00,
2013-02-10 12:48:00,76.7,60.8,30.26,SSE,163,2.0,9.0,58,0.00,,SKC,0.01,VWS V14.01,2013-02-10 17:48:00,
2013-02-10 12:54:00,76.6,60.7,30.25,ENE,70,1.0,11.0,58,0.00,,SKC,0.01,VWS V14.01,2013-02-10 17:54:00,
2013-02-10 12:59:00,77.5,62.1,30.25,SSE,154,5.0,11.0,59,0.00,,SKC,0.01,VWS V14.01,2013-02-10 17:59:00,
2013-02-10 13:04:00,78.4,63.4,30.25,SSE,148,6.0,9.0,60,0.00,,SKC,0.01,VWS V14.01,2013-02-10 18:04:00,
2013-02-10 13:10:00,78.2,62.2,30.24,SSE,163,6.0,9.0,58,0.00,,SKC,0.01,VWS V14.01,2013-02-10 18:10:00,
2013-02-10 13:15:00,77.2,61.8,30.24,SE,126,5.0,9.0,59,0.00,,SKC,0.01,VWS V14.01,2013-02-10 18:15:00,
2013-02-10 13:20:00,77.6,63.1,30.24,ENE,71,7.0,9.0,61,0.00,,SKC,0.01,VWS V14.01,2013-02-10 18:20:00,
2013-02-10 13:26:00,76.7,61.8,30.24,NW,306,2.0,11.0,60,0.00,,SKC,0.01,VWS V14.01,2013-02-10 18:26:00,
2013-02-10 13:31:00,76.4,62.0,30.23,ENE,69,5.0,5.0,61,0.00,,SKC,0.01,VWS V14.01,2013-02-10 18:31:00,
2013-02-10 13:37:00,76.8,62.3,30.23,East,92,1.0,6.0,61,0.00,,SKC,0.01,VWS V14.01,2013-02-10 18:37:00,
2013-02-10 13:42:00,76.7,62.7,30.23,SSW,197,2.0,6.0,62,0.00,,SKC,0.01,VWS V14.01,2013-02-10 18:42:00,
2013-02-10 13:48:00,76.5,62.5,30.23,ESE,118,5.0,12.0,62,0.00,,SKC,0.01,VWS V14.01,2013-02-10 18:48:00,
2013-02-10 13:53:00,76.2,62.7,30.23,ESE,117,2.0,12.0,63,0.00,,SKC,0.01,VWS V14.01,2013-02-10 18:53:00,
2013-02-10 13:58:00,76.5,63.0,30.23,ENE,71,3.0,12.0,63,0.00,,SKC,0.01,VWS V14.01,2013-02-10 18:58:00,
2013-02-10 14:04:00,76.1,62.6,30.23,WSW,256,1.0,5.0,63,0.00,,SKC,0.01,VWS V14.01,2013-02-10 19:04:00,
2013-02-10 14:09:00,76.0,63.0,30.23,ESE,122,0.0,5.0,64,0.00,,SKC,0.01,VWS V14.01,2013-02-10 19:09:00,
2013-02-10 14:14:00,76.8,63.3,30.22,WSW,250,1.0,6.0,63,0.00,,SKC,0.01,VWS V14.01,2013-02-10 19:14:00,
2013-02-10 14:20:00,77.4,63.8,30.22,East,101,6.0,11.0,63,0.00,,SKC,0.01,VWS V14.01,2013-02-10 19:20:00,
2013-02-10 14:25:00,77.2,63.6,30.22,NNE,23,3.0,11.0,63,0.00,,SKC,0.01,VWS V14.01,2013-02-10 19:25:00,
2013-02-10 14:31:00,76.5,63.9,30.22,NE,36,2.0,3.0,65,0.00,,SKC,0.01,VWS V14.01,2013-02-10 19:31:00,
2013-02-10 14:36:00,78.3,63.3,30.22,SSW,198,2.0,8.0,60,0.00,,SKC,0.01,VWS V14.01,2013-02-10 19:36:00,
2013-02-10 14:41:00,77.9,62.9,30.22,NE,50,5.0,11.0,60,0.00,,SKC,0.01,VWS V14.01,2013-02-10 19:41:00,
2013-02-10 14:47:00,76.9,62.4,30.22,SSE,168,5.0,11.0,61,0.00,,SKC,0.01,VWS V14.01,2013-02-10 19:47:00,
2013-02-10 14:52:00,78.1,63.1,30.22,NW,305,1.0,11.0,60,0.00,,SKC,0.01,VWS V14.01,2013-02-10 19:52:00,
2013-02-10 14:58:00,77.1,63.1,30.22,ENE,76,2.0,11.0,62,0.00,,SKC,0.01,VWS V14.01,2013-02-10 19:58:00,
2013-02-10 15:03:00,77.7,64.1,30.22,ESE,117,1.0,6.0,63,0.00,,SKC,0.01,VWS V14.01,2013-02-10 20:03:00,
2013-02-10 15:09:00,76.3,62.8,30.22,NE,55,0.0,11.0,63,0.00,,SKC,0.01,VWS V14.01,2013-02-10 20:09:00,
2013-02-10 15:14:00,76.1,63.0,30.22,ESE,119,4.0,11.0,64,0.00,,SKC,0.01,VWS V14.01,2013-02-10 20:14:00,
2013-02-10 15:19:00,76.1,62.6,30.21,East,84,2.0,11.0,63,0.00,,SKC,0.01,VWS V14.01,2013-02-10 20:19:00,
2013-02-10 15:25:00,76.1,63.0,30.21,NE,44,5.0,11.0,64,0.00,,SKC,0.01,VWS V14.01,2013-02-10 20:25:00,
2013-02-10 15:30:00,76.0,63.0,30.21,ENE,59,2.0,2.0,64,0.00,,SKC,0.01,VWS V14.01,2013-02-10 20:30:00,
2013-02-10 15:36:00,76.3,63.7,30.21,SE,138,0.0,5.0,65,0.00,,SKC,0.01,VWS V14.01,2013-02-10 20:36:00,
2013-02-10 15:41:00,76.1,63.0,30.21,ESE,119,2.0,11.0,64,0.00,,SKC,0.01,VWS V14.01,2013-02-10 20:41:00,
2013-02-10 15:47:00,75.8,62.8,30.21,ESE,103,2.0,11.0,64,0.00,,SKC,0.01,VWS V14.01,2013-02-10 20:47:00,
2013-02-10 15:52:00,75.6,62.6,30.21,SW,215,5.0,11.0,64,0.00,,SKC,0.01,VWS V14.01,2013-02-10 20:52:00,
2013-02-10 15:58:00,75.9,62.4,30.21,East,98,2.0,11.0,63,0.00,,SKC,0.01,VWS V14.01,2013-02-10 20:58:00,
2013-02-10 16:03:00,76.1,62.6,30.21,SW,227,1.0,10.0,63,0.00,,SKC,0.01,VWS V14.01,2013-02-10 21:03:00,
2013-02-10 16:08:00,75.5,62.5,30.21,ENE,69,1.0,10.0,64,0.00,,SKC,0.01,VWS V14.01,2013-02-10 21:08:00,
2013-02-10 16:14:00,74.8,62.3,30.21,ESE,116,7.0,10.0,65,0.00,,SKC,0.01,VWS V14.01,2013-02-10 21:14:00,
2013-02-10 16:19:00,75.0,62.5,30.21,SE,124,2.0,10.0,65,0.00,,SKC,0.01,VWS V14.01,2013-02-10 21:19:00,
2013-02-10 16:25:00,74.7,62.6,30.21,East,79,2.0,11.0,66,0.00,,SKC,0.01,VWS V14.01,2013-02-10 21:25:00,
2013-02-10 16:30:00,74.6,62.5,30.20,South,186,0.0,1.0,66,0.00,,SKC,0.01,VWS V14.01,2013-02-10 21:30:00,
2013-02-10 16:35:00,74.5,62.4,30.20,North,5,1.0,9.0,66,0.00,,SKC,0.01,VWS V14.01,2013-02-10 21:35:00,
2013-02-10 16:41:00,74.2,62.1,30.20,South,180,1.0,9.0,66,0.00,,SKC,0.01,VWS V14.01,2013-02-10 21:41:00,
2013-02-10 16:46:00,73.9,61.8,30.21,SE,140,6.0,9.0,66,0.00,,SKC,0.01,VWS V14.01,2013-02-10 21:46:00,
2013-02-10 16:52:00,74.1,62.0,30.21,ENE,67,1.0,9.0,66,0.00,,SKC,0.01,VWS V14.01,2013-02-10 21:52:00,
2013-02-10 16:57:00,74.0,61.9,30.21,SE,135,1.0,9.0,66,0.00,,SKC,0.01,VWS V14.01,2013-02-10 21:57:00,
2013-02-10 17:03:00,74.0,61.9,30.21,SE,139,1.0,4.0,66,0.00,,SKC,0.01,VWS V14.01,2013-02-10 22:03:00,
2013-02-10 17:08:00,73.9,62.3,30.21,South,173,0.0,5.0,67,0.00,,SKC,0.01,VWS V14.01,2013-02-10 22:08:00,
2013-02-10 17:13:00,74.1,62.5,30.21,SE,139,2.0,5.0,67,0.00,,SKC,0.01,VWS V14.01,2013-02-10 22:13:00,
2013-02-10 17:19:00,74.1,62.0,30.21,East,85,1.0,5.0,66,0.00,,SKC,0.01,VWS V14.01,2013-02-10 22:19:00,
2013-02-10 17:24:00,73.8,62.2,30.21,ESE,123,4.0,7.0,67,0.00,,SKC,0.01,VWS V14.01,2013-02-10 22:24:00,
2013-02-10 17:30:00,73.5,61.9,30.21,ESE,120,4.0,8.0,67,0.00,,SKC,0.01,VWS V14.01,2013-02-10 22:30:00,
2013-02-10 17:35:00,73.3,62.1,30.21,NE,48,2.0,3.0,68,0.00,,SKC,0.01,VWS V14.01,2013-02-10 22:35:00,
2013-02-10 17:40:00,72.9,61.7,30.21,SSW,196,0.0,3.0,68,0.00,,SKC,0.01,VWS V14.01,2013-02-10 22:40:00,
2013-02-10 17:46:00,72.3,61.6,30.21,ESE,105,1.0,5.0,69,0.00,,SKC,0.01,VWS V14.01,2013-02-10 22:46:00,
2013-02-10 17:51:00,71.9,61.6,30.22,ESE,107,1.0,5.0,70,0.00,,SKC,0.01,VWS V14.01,2013-02-10 22:51:00,
2013-02-10 17:56:00,71.6,61.7,30.22,ESE,123,2.0,5.0,71,0.00,,SKC,0.01,VWS V14.01,2013-02-10 22:56:00,
2013-02-10 18:02:00,71.2,61.3,30.22,East,89,2.0,6.0,71,0.00,,SKC,0.01,VWS V14.01,2013-02-10 23:02:00,
2013-02-10 18:08:00,70.7,61.2,30.22,SE,137,0.0,6.0,72,0.00,,SKC,0.01,VWS V14.01,2013-02-10 23:08:00,
2013-02-10 18:13:00,70.3,61.2,30.22,SE,145,2.0,6.0,73,0.00,,SKC,0.01,VWS V14.01,2013-02-10 23:13:00,
2013-02-10 18:18:00,70.2,61.2,30.22,East,83,2.0,6.0,73,0.00,,SKC,0.01,VWS V14.01,2013-02-10 23:18:00,
2013-02-10 18:24:00,69.9,61.2,30.22,SE,131,1.0,6.0,74,0.00,,SKC,0.01,VWS V14.01,2013-02-10 23:24:00,
2013-02-10 18:29:00,69.5,61.2,30.22,ESE,111,2.0,6.0,75,0.00,,SKC,0.01,VWS V14.01,2013-02-10 23:29:00,
2013-02-10 18:35:00,69.1,60.8,30.22,SE,131,0.0,1.0,75,0.00,,SKC,0.01,VWS V14.01,2013-02-10 23:35:00,
2013-02-10 18:40:00,69.1,60.8,30.23,SE,135,0.0,1.0,75,0.00,,SKC,0.01,VWS V14.01,2013-02-10 23:40:00,
2013-02-10 18:46:00,68.8,60.9,30.23,SE,134,0.0,6.0,76,0.00,,SKC,0.01,VWS V14.01,2013-02-10 23:46:00,
2013-02-10 18:51:00,68.5,60.6,30.23,SE,134,0.0,6.0,76,0.00,,SKC,0.01,VWS V14.01,2013-02-10 23:51:00,
2013-02-10 18:56:00,68.0,60.5,30.23,SE,134,0.0,6.0,77,0.00,,SKC,0.01,VWS V14.01,2013-02-10 23:56:00,
2013-02-10 19:02:00,67.3,60.6,30.23,East,96,0.0,4.0,79,0.00,,SKC,0.01,VWS V14.01,2013-02-11 00:02:00,
2013-02-10 19:07:00,67.0,60.6,30.23,SE,146,0.0,4.0,80,0.00,,SKC,0.01,VWS V14.01,2013-02-11 00:07:00,
2013-02-10 19:13:00,67.0,60.6,30.23,SE,128,0.0,4.0,80,0.00,,SKC,0.01,VWS V14.01,2013-02-11 00:13:00,
2013-02-10 19:18:00,66.9,60.5,30.23,ESE,103,1.0,4.0,80,0.00,,SKC,0.01,VWS V14.01,2013-02-11 00:18:00,
2013-02-10 19:23:00,66.9,60.5,30.23,SE,126,1.0,4.0,80,0.00,,SKC,0.01,VWS V14.01,2013-02-11 00:23:00,
2013-02-10 19:29:00,66.8,60.4,30.23,NE,55,0.0,4.0,80,0.00,,SKC,0.01,VWS V14.01,2013-02-11 00:29:00,
2013-02-10 19:35:00,66.5,60.2,30.23,ENE,58,0.0,0.0,80,0.00,,SKC,0.01,VWS V14.01,2013-02-11 00:35:00,
2013-02-10 19:40:00,66.4,60.4,30.23,ESE,119,1.0,1.0,81,0.00,,SKC,0.01,VWS V14.01,2013-02-11 00:40:00,
2013-02-10 19:46:00,66.2,60.2,30.23,ESE,123,0.0,1.0,81,0.00,,SKC,0.01,VWS V14.01,2013-02-11 00:46:00,
2013-02-10 19:51:00,66.1,60.1,30.23,East,85,0.0,1.0,81,0.00,,SKC,0.01,VWS V14.01,2013-02-11 00:51:00,
2013-02-10 19:56:00,66.1,60.1,30.23,ESE,119,4.0,5.0,81,0.00,,SKC,0.01,VWS V14.01,2013-02-11 00:56:00,
2013-02-10 20:02:00,66.0,60.3,30.23,SSE,152,1.0,2.0,82,0.00,,SKC,0.01,VWS V14.01,2013-02-11 01:02:00,
2013-02-10 20:07:00,66.0,60.7,30.23,SSE,151,1.0,2.0,83,0.00,,SKC,0.01,VWS V14.01,2013-02-11 01:07:00,
2013-02-10 20:13:00,66.4,60.7,30.23,SSE,154,0.0,2.0,82,0.00,,SKC,0.01,VWS V14.01,2013-02-11 01:13:00,
2013-02-10 20:18:00,65.9,60.6,30.23,SE,143,0.0,4.0,83,0.00,,SKC,0.01,VWS V14.01,2013-02-11 01:18:00,
2013-02-10 20:23:00,66.1,60.8,30.23,SE,138,0.0,5.0,83,0.00,,SKC,0.01,VWS V14.01,2013-02-11 01:23:00,
2013-02-10 20:29:00,66.6,60.9,30.23,SE,140,0.0,5.0,82,0.00,,SKC,0.01,VWS V14.01,2013-02-11 01:29:00,
2013-02-10 20:34:00,66.4,61.1,30.23,SE,136,0.0,1.0,83,0.00,,SKC,0.01,VWS V14.01,2013-02-11 01:34:00,
2013-02-10 20:40:00,66.5,61.2,30.23,SE,132,0.0,2.0,83,0.00,,SKC,0.01,VWS V14.01,2013-02-11 01:40:00,
2013-02-10 20:45:00,66.2,60.9,30.23,South,170,1.0,4.0,83,0.00,,SKC,0.01,VWS V14.01,2013-02-11 01:45:00,
2013-02-10 20:50:00,66.3,61.0,30.23,SE,146,2.0,4.0,83,0.00,,SKC,0.01,VWS V14.01,2013-02-11 01:50:00,
2013-02-10 20:56:00,66.3,61.0,30.23,ESE,117,1.0,5.0,83,0.00,,SKC,0.01,VWS V14.01,2013-02-11 01:56:00,
2013-02-10 21:01:00,66.3,61.0,30.23,SE,141,0.0,7.0,83,0.00,,SKC,0.01,VWS V14.01,2013-02-11 02:01:00,
2013-02-10 21:06:00,66.4,61.1,30.23,SE,146,2.0,7.0,83,0.00,,SKC,0.01,VWS V14.01,2013-02-11 02:06:00,
2013-02-10 21:12:00,66.3,61.0,30.23,SSE,148,1.0,7.0,83,0.00,,SKC,0.01,VWS V14.01,2013-02-11 02:12:00,
2013-02-10 21:17:00,66.1,60.8,30.23,SE,146,1.0,7.0,83,0.00,,SKC,0.01,VWS V14.01,2013-02-11 02:17:00,
2013-02-10 21:23:00,66.3,61.0,30.23,SSE,154,1.0,7.0,83,0.00,,SKC,0.01,VWS V14.01,2013-02-11 02:23:00,
2013-02-10 21:28:00,66.4,61.1,30.23,SSE,167,4.0,7.0,83,0.00,,SKC,0.01,VWS V14.01,2013-02-11 02:28:00,
2013-02-10 21:34:00,66.3,61.0,30.23,SE,136,2.0,4.0,83,0.00,,SKC,0.01,VWS V14.01,2013-02-11 02:34:00,
2013-02-10 21:39:00,66.2,61.2,30.23,SE,136,2.0,4.0,84,0.00,,SKC,0.01,VWS V14.01,2013-02-11 02:39:00,
2013-02-10 21:44:00,66.2,61.2,30.23,SE,142,0.0,6.0,84,0.00,,SKC,0.01,VWS V14.01,2013-02-11 02:44:00,
2013-02-10 21:50:00,66.3,61.0,30.23,SE,142,0.0,6.0,83,0.00,,SKC,0.01,VWS V14.01,2013-02-11 02:50:00,
2013-02-10 21:55:00,66.1,60.8,30.23,SE,142,1.0,6.0,83,0.00,,SKC,0.01,VWS V14.01,2013-02-11 02:55:00,
2013-02-10 22:00:00,65.9,60.9,30.23,SE,136,1.0,1.0,84,0.00,,SKC,0.01,VWS V14.01,2013-02-11 03:00:00,
2013-02-10 22:06:00,65.8,60.8,30.23,SSE,147,0.0,1.0,84,0.00,,SKC,0.01,VWS V14.01,2013-02-11 03:06:00,
2013-02-10 22:11:00,65.1,60.5,30.23,South,169,4.0,4.0,85,0.00,,SKC,0.01,VWS V14.01,2013-02-11 03:11:00,
2013-02-10 22:17:00,65.2,60.6,30.23,SSE,153,4.0,4.0,85,0.00,,SKC,0.01,VWS V14.01,2013-02-11 03:17:00,
2013-02-10 22:22:00,64.9,60.3,30.23,SE,134,0.0,4.0,85,0.00,,SKC,0.01,VWS V14.01,2013-02-11 03:22:00,
2013-02-10 22:28:00,64.3,60.3,30.23,SE,134,0.0,4.0,87,0.00,,SKC,0.01,VWS V14.01,2013-02-11 03:28:00,
2013-02-10 22:33:00,63.8,59.5,30.23,SE,134,0.0,0.0,86,0.00,,SKC,0.01,VWS V14.01,2013-02-11 03:33:00,
2013-02-10 22:38:00,63.7,60.1,30.23,SE,132,2.0,2.0,88,0.00,,SKC,0.01,VWS V14.01,2013-02-11 03:38:00,
2013-02-10 22:43:00,64.0,60.4,30.23,SE,132,0.0,2.0,88,0.00,,SKC,0.01,VWS V14.01,2013-02-11 03:43:00,
2013-02-10 22:48:00,63.7,60.1,30.23,SE,132,0.0,2.0,88,0.00,,SKC,0.01,VWS V14.01,2013-02-11 03:48:00,
2013-02-10 22:54:00,63.3,59.7,30.23,SE,132,0.0,2.0,88,0.00,,SKC,0.01,VWS V14.01,2013-02-11 03:54:00,
2013-02-10 22:59:00,62.8,59.5,30.23,SE,132,0.0,2.0,89,0.00,,SKC,0.01,VWS V14.01,2013-02-11 03:59:00,
2013-02-10 23:05:00,62.5,59.5,30.23,SE,132,0.0,0.0,90,0.00,,SKC,0.01,VWS V14.01,2013-02-11 04:05:00,
2013-02-10 23:10:00,62.2,59.5,30.23,SE,132,0.0,0.0,91,0.00,,SKC,0.01,VWS V14.01,2013-02-11 04:10:00,
2013-02-10 23:15:00,62.0,59.7,30.23,SE,132,0.0,0.0,92,0.00,,SKC,0.01,VWS V14.01,2013-02-11 04:15:00,
2013-02-10 23:21:00,61.8,59.5,30.23,SE,132,0.0,0.0,92,0.00,,SKC,0.01,VWS V14.01,2013-02-11 04:21:00,
2013-02-10 23:26:00,61.6,59.6,30.23,SE,132,0.0,0.0,93,0.00,,SKC,0.01,VWS V14.01,2013-02-11 04:26:00,
2013-02-10 23:32:00,61.5,59.2,30.22,SE,132,1.0,1.0,92,0.00,,SKC,0.01,VWS V14.01,2013-02-11 04:32:00,
2013-02-10 23:37:00,61.8,59.8,30.22,SE,133,0.0,2.0,93,0.00,,SKC,0.01,VWS V14.01,2013-02-11 04:37:00,
2013-02-10 23:43:00,61.5,59.5,30.22,SE,133,0.0,2.0,93,0.00,,SKC,0.01,VWS V14.01,2013-02-11 04:43:00,
2013-02-10 23:48:00,61.9,59.9,30.22,SE,133,0.0,2.0,93,0.00,,SKC,0.01,VWS V14.01,2013-02-11 04:48:00,
2013-02-10 23:54:00,62.0,59.7,30.22,SE,133,2.0,2.0,92,0.00,,SKC,0.01,VWS V14.01,2013-02-11 04:54:00,
2013-02-10 23:59:00,61.8,59.8,30.22,SE,133,0.0,2.0,93,0.00,,SKC,0.01,VWS V14.01,2013-02-11 04:59:00,